sensor_id;sensor_type;location;lat;lon;timestamp;P1;durP1;ratioP1;P2;durP2;ratioP2
66384;SDS011;53426;55.872;37.462;2023-04-15T00:00:32;1.63;;;1.52;;
66384;SDS011;53426;55.872;37.462;2023-04-15T00:02:58;1.92;;;1.80;;
66384;SDS011;53426;55.872;37.462;2023-04-15T00:05:28;2.22;;;1.80;;
66384;SDS011;53426;55.872;37.462;2023-04-15T00:07:54;1.80;;;1.50;;
66384;SDS011;53426;55.872;37.462;2023-04-15T00:10:20;3.38;;;1.58;;
66384;SDS011;53426;55.872;37.462;2023-04-15T00:12:45;3.75;;;1.35;;
66384;SDS011;53426;55.872;37.462;2023-04-15T00:15:11;1.05;;;1.05;;
66384;SDS011;53426;55.872;37.462;2023-04-15T00:17:37;4.93;;;1.77;;
66384;SDS011;53426;55.872;37.462;2023-04-15T00:20:06;1.95;;;1.80;;
66384;SDS011;53426;55.872;37.462;2023-04-15T00:22:32;2.13;;;1.83;;
66384;SDS011;53426;55.872;37.462;2023-04-15T00:25:01;1.70;;;1.60;;
66384;SDS011;53426;55.872;37.462;2023-04-15T00:27:28;1.90;;;1.60;;
66384;SDS011;53426;55.872;37.462;2023-04-15T00:29:54;4.13;;;1.90;;
66384;SDS011;53426;55.872;37.462;2023-04-15T00:32:21;2.33;;;1.80;;
66384;SDS011;53426;55.872;37.462;2023-04-15T00:34:47;1.60;;;1.08;;
66384;SDS011;53426;55.872;37.462;2023-04-15T00:37:14;2.92;;;1.75;;
66384;SDS011;53426;55.872;37.462;2023-04-15T00:39:41;1.73;;;1.63;;
66384;SDS011;53426;55.872;37.462;2023-04-15T00:42:08;1.50;;;1.40;;
66384;SDS011;53426;55.872;37.462;2023-04-15T00:44:34;2.28;;;1.70;;
66384;SDS011;53426;55.872;37.462;2023-04-15T00:47:01;1.52;;;1.42;;
66384;SDS011;53426;55.872;37.462;2023-04-15T00:49:29;3.83;;;1.80;;
66384;SDS011;53426;55.872;37.462;2023-04-15T00:51:57;1.50;;;1.40;;
66384;SDS011;53426;55.872;37.462;2023-04-15T00:54:22;3.60;;;1.55;;
66384;SDS011;53426;55.872;37.462;2023-04-15T00:56:48;1.88;;;1.20;;
66384;SDS011;53426;55.872;37.462;2023-04-15T00:59:14;1.98;;;1.48;;
66384;SDS011;53426;55.872;37.462;2023-04-15T01:01:43;1.48;;;1.33;;
66384;SDS011;53426;55.872;37.462;2023-04-15T01:04:09;1.63;;;1.50;;
66384;SDS011;53426;55.872;37.462;2023-04-15T01:06:36;2.22;;;1.90;;
66384;SDS011;53426;55.872;37.462;2023-04-15T01:09:02;7.38;;;1.83;;
66384;SDS011;53426;55.872;37.462;2023-04-15T01:11:28;3.00;;;1.73;;
66384;SDS011;53426;55.872;37.462;2023-04-15T01:13:59;3.10;;;1.75;;
66384;SDS011;53426;55.872;37.462;2023-04-15T01:16:26;1.60;;;1.50;;
66384;SDS011;53426;55.872;37.462;2023-04-15T01:18:53;1.88;;;1.20;;
66384;SDS011;53426;55.872;37.462;2023-04-15T01:21:19;4.90;;;1.75;;
66384;SDS011;53426;55.872;37.462;2023-04-15T01:23:46;4.85;;;2.10;;
66384;SDS011;53426;55.872;37.462;2023-04-15T01:26:15;2.58;;;1.52;;
66384;SDS011;53426;55.872;37.462;2023-04-15T01:28:45;1.95;;;1.70;;
66384;SDS011;53426;55.872;37.462;2023-04-15T01:31:12;3.03;;;1.80;;
66384;SDS011;53426;55.872;37.462;2023-04-15T01:33:39;1.70;;;1.60;;
66384;SDS011;53426;55.872;37.462;2023-04-15T01:36:25;1.80;;;1.70;;
66384;SDS011;53426;55.872;37.462;2023-04-15T01:38:52;1.80;;;1.70;;
66384;SDS011;53426;55.872;37.462;2023-04-15T01:41:27;2.88;;;1.98;;
66384;SDS011;53426;55.872;37.462;2023-04-15T01:43:54;7.53;;;1.70;;
66384;SDS011;53426;55.872;37.462;2023-04-15T01:46:21;6.65;;;1.95;;
66384;SDS011;53426;55.872;37.462;2023-04-15T01:48:49;4.65;;;1.50;;
66384;SDS011;53426;55.872;37.462;2023-04-15T01:51:16;2.75;;;1.48;;
66384;SDS011;53426;55.872;37.462;2023-04-15T01:53:43;2.45;;;1.80;;
66384;SDS011;53426;55.872;37.462;2023-04-15T01:56:10;1.90;;;1.80;;
66384;SDS011;53426;55.872;37.462;2023-04-15T01:58:37;2.47;;;1.75;;
66384;SDS011;53426;55.872;37.462;2023-04-15T02:01:05;2.67;;;1.80;;
66384;SDS011;53426;55.872;37.462;2023-04-15T02:03:33;2.13;;;1.70;;
66384;SDS011;53426;55.872;37.462;2023-04-15T02:05:59;3.47;;;2.10;;
66384;SDS011;53426;55.872;37.462;2023-04-15T02:08:28;3.17;;;1.70;;
66384;SDS011;53426;55.872;37.462;2023-04-15T02:10:56;2.03;;;1.80;;
66384;SDS011;53426;55.872;37.462;2023-04-15T02:13:25;5.53;;;1.65;;
66384;SDS011;53426;55.872;37.462;2023-04-15T02:15:53;2.75;;;1.77;;
66384;SDS011;53426;55.872;37.462;2023-04-15T02:18:21;1.90;;;1.80;;
66384;SDS011;53426;55.872;37.462;2023-04-15T02:20:49;1.60;;;1.50;;
66384;SDS011;53426;55.872;37.462;2023-04-15T02:23:17;3.05;;;1.80;;
66384;SDS011;53426;55.872;37.462;2023-04-15T02:25:44;3.67;;;1.77;;
66384;SDS011;53426;55.872;37.462;2023-04-15T02:28:12;2.05;;;1.85;;
66384;SDS011;53426;55.872;37.462;2023-04-15T02:30:39;5.93;;;2.00;;
66384;SDS011;53426;55.872;37.462;2023-04-15T02:33:07;2.83;;;1.73;;
66384;SDS011;53426;55.872;37.462;2023-04-15T02:35:34;4.13;;;1.40;;
66384;SDS011;53426;55.872;37.462;2023-04-15T02:38:04;3.65;;;1.95;;
66384;SDS011;53426;55.872;37.462;2023-04-15T02:40:31;2.08;;;1.88;;
66384;SDS011;53426;55.872;37.462;2023-04-15T02:42:58;1.90;;;1.80;;
66384;SDS011;53426;55.872;37.462;2023-04-15T02:45:27;1.70;;;1.52;;
66384;SDS011;53426;55.872;37.462;2023-04-15T02:47:54;2.92;;;2.15;;
66384;SDS011;53426;55.872;37.462;2023-04-15T02:50:21;2.40;;;1.83;;
66384;SDS011;53426;55.872;37.462;2023-04-15T02:52:49;2.80;;;1.75;;
66384;SDS011;53426;55.872;37.462;2023-04-15T02:55:17;3.45;;;2.20;;
66384;SDS011;53426;55.872;37.462;2023-04-15T02:57:44;2.28;;;1.73;;
66384;SDS011;53426;55.872;37.462;2023-04-15T03:00:11;7.53;;;2.00;;
66384;SDS011;53426;55.872;37.462;2023-04-15T03:02:44;3.75;;;1.88;;
66384;SDS011;53426;55.872;37.462;2023-04-15T03:05:12;4.57;;;2.00;;
66384;SDS011;53426;55.872;37.462;2023-04-15T03:07:45;1.83;;;1.70;;
66384;SDS011;53426;55.872;37.462;2023-04-15T03:10:13;2.45;;;1.75;;
66384;SDS011;53426;55.872;37.462;2023-04-15T03:12:40;2.03;;;1.83;;
66384;SDS011;53426;55.872;37.462;2023-04-15T03:15:09;2.53;;;2.00;;
66384;SDS011;53426;55.872;37.462;2023-04-15T03:17:41;7.13;;;2.35;;
66384;SDS011;53426;55.872;37.462;2023-04-15T03:20:08;2.20;;;2.00;;
66384;SDS011;53426;55.872;37.462;2023-04-15T03:22:36;1.75;;;1.65;;
66384;SDS011;53426;55.872;37.462;2023-04-15T03:25:04;3.53;;;2.05;;
66384;SDS011;53426;55.872;37.462;2023-04-15T03:27:32;2.22;;;1.65;;
66384;SDS011;53426;55.872;37.462;2023-04-15T03:30:03;2.25;;;1.73;;
66384;SDS011;53426;55.872;37.462;2023-04-15T03:32:36;1.73;;;1.60;;
66384;SDS011;53426;55.872;37.462;2023-04-15T03:35:03;2.42;;;2.22;;
66384;SDS011;53426;55.872;37.462;2023-04-15T03:37:30;2.63;;;1.88;;
66384;SDS011;53426;55.872;37.462;2023-04-15T03:39:57;3.85;;;1.67;;
66384;SDS011;53426;55.872;37.462;2023-04-15T03:42:24;3.50;;;1.50;;
66384;SDS011;53426;55.872;37.462;2023-04-15T03:44:51;1.98;;;1.88;;
66384;SDS011;53426;55.872;37.462;2023-04-15T03:47:18;1.73;;;1.50;;
66384;SDS011;53426;55.872;37.462;2023-04-15T03:49:45;6.28;;;2.10;;
66384;SDS011;53426;55.872;37.462;2023-04-15T03:52:12;2.25;;;1.92;;
66384;SDS011;53426;55.872;37.462;2023-04-15T03:54:39;2.00;;;1.80;;
66384;SDS011;53426;55.872;37.462;2023-04-15T03:57:06;3.28;;;2.13;;
66384;SDS011;53426;55.872;37.462;2023-04-15T03:59:33;2.97;;;1.50;;
66384;SDS011;53426;55.872;37.462;2023-04-15T04:02:01;3.03;;;1.98;;
66384;SDS011;53426;55.872;37.462;2023-04-15T04:04:28;2.40;;;1.70;;
66384;SDS011;53426;55.872;37.462;2023-04-15T04:06:55;2.85;;;1.80;;
66384;SDS011;53426;55.872;37.462;2023-04-15T04:09:22;2.60;;;1.88;;
66384;SDS011;53426;55.872;37.462;2023-04-15T04:11:49;3.10;;;1.63;;
66384;SDS011;53426;55.872;37.462;2023-04-15T04:14:16;6.72;;;1.88;;
66384;SDS011;53426;55.872;37.462;2023-04-15T04:16:43;3.30;;;2.30;;
66384;SDS011;53426;55.872;37.462;2023-04-15T04:19:11;3.17;;;2.33;;
66384;SDS011;53426;55.872;37.462;2023-04-15T04:21:38;2.35;;;1.90;;
66384;SDS011;53426;55.872;37.462;2023-04-15T04:24:10;2.53;;;1.60;;
66384;SDS011;53426;55.872;37.462;2023-04-15T04:26:37;2.00;;;1.55;;
66384;SDS011;53426;55.872;37.462;2023-04-15T04:29:04;3.65;;;1.50;;
66384;SDS011;53426;55.872;37.462;2023-04-15T04:31:31;3.92;;;2.17;;
66384;SDS011;53426;55.872;37.462;2023-04-15T04:33:59;1.92;;;1.70;;
66384;SDS011;53426;55.872;37.462;2023-04-15T04:36:29;3.08;;;1.90;;
66384;SDS011;53426;55.872;37.462;2023-04-15T04:41:48;3.33;;;2.00;;
66384;SDS011;53426;55.872;37.462;2023-04-15T04:44:21;5.13;;;1.65;;
66384;SDS011;53426;55.872;37.462;2023-04-15T04:46:49;1.73;;;1.63;;
66384;SDS011;53426;55.872;37.462;2023-04-15T04:49:16;4.07;;;1.80;;
66384;SDS011;53426;55.872;37.462;2023-04-15T04:51:43;3.03;;;1.73;;
66384;SDS011;53426;55.872;37.462;2023-04-15T04:54:14;2.08;;;1.58;;
66384;SDS011;53426;55.872;37.462;2023-04-15T04:56:41;2.03;;;1.75;;
66384;SDS011;53426;55.872;37.462;2023-04-15T04:59:08;5.00;;;2.42;;
66384;SDS011;53426;55.872;37.462;2023-04-15T05:01:35;2.85;;;2.58;;
66384;SDS011;53426;55.872;37.462;2023-04-15T05:04:02;2.50;;;2.17;;
66384;SDS011;53426;55.872;37.462;2023-04-15T05:06:33;3.58;;;1.75;;
66384;SDS011;53426;55.872;37.462;2023-04-15T05:09:02;5.88;;;1.90;;
66384;SDS011;53426;55.872;37.462;2023-04-15T05:11:29;1.70;;;1.60;;
66384;SDS011;53426;55.872;37.462;2023-04-15T05:13:56;2.35;;;1.90;;
66384;SDS011;53426;55.872;37.462;2023-04-15T05:16:25;3.35;;;1.90;;
66384;SDS011;53426;55.872;37.462;2023-04-15T05:18:52;2.55;;;1.73;;
66384;SDS011;53426;55.872;37.462;2023-04-15T05:21:19;2.35;;;2.10;;
66384;SDS011;53426;55.872;37.462;2023-04-15T05:23:46;7.20;;;1.95;;
66384;SDS011;53426;55.872;37.462;2023-04-15T05:26:13;3.50;;;2.00;;
66384;SDS011;53426;55.872;37.462;2023-04-15T05:28:40;1.95;;;1.80;;
66384;SDS011;53426;55.872;37.462;2023-04-15T05:31:07;3.72;;;2.03;;
66384;SDS011;53426;55.872;37.462;2023-04-15T05:33:34;6.30;;;2.20;;
66384;SDS011;53426;55.872;37.462;2023-04-15T05:36:02;6.10;;;1.83;;
66384;SDS011;53426;55.872;37.462;2023-04-15T05:38:29;3.45;;;2.28;;
66384;SDS011;53426;55.872;37.462;2023-04-15T05:40:57;3.67;;;2.28;;
66384;SDS011;53426;55.872;37.462;2023-04-15T05:43:24;2.35;;;1.90;;
66384;SDS011;53426;55.872;37.462;2023-04-15T05:45:51;4.28;;;2.20;;
66384;SDS011;53426;55.872;37.462;2023-04-15T05:48:18;4.70;;;2.38;;
66384;SDS011;53426;55.872;37.462;2023-04-15T05:50:46;3.50;;;1.90;;
66384;SDS011;53426;55.872;37.462;2023-04-15T05:53:16;3.47;;;2.00;;
66384;SDS011;53426;55.872;37.462;2023-04-15T05:55:43;5.82;;;2.13;;
66384;SDS011;53426;55.872;37.462;2023-04-15T05:58:10;4.40;;;2.13;;
66384;SDS011;53426;55.872;37.462;2023-04-15T06:00:38;3.58;;;2.40;;
66384;SDS011;53426;55.872;37.462;2023-04-15T06:03:05;2.83;;;2.20;;
66384;SDS011;53426;55.872;37.462;2023-04-15T06:05:33;4.75;;;2.35;;
66384;SDS011;53426;55.872;37.462;2023-04-15T06:08:00;7.10;;;1.90;;
66384;SDS011;53426;55.872;37.462;2023-04-15T06:10:27;2.83;;;1.98;;
66384;SDS011;53426;55.872;37.462;2023-04-15T06:12:54;3.60;;;2.05;;
66384;SDS011;53426;55.872;37.462;2023-04-15T06:15:21;2.83;;;2.33;;
66384;SDS011;53426;55.872;37.462;2023-04-15T06:17:49;3.85;;;2.47;;
66384;SDS011;53426;55.872;37.462;2023-04-15T06:20:16;2.03;;;1.67;;
66384;SDS011;53426;55.872;37.462;2023-04-15T06:22:43;2.78;;;2.13;;
66384;SDS011;53426;55.872;37.462;2023-04-15T06:25:10;5.13;;;2.08;;
66384;SDS011;53426;55.872;37.462;2023-04-15T06:27:37;3.05;;;2.38;;
66384;SDS011;53426;55.872;37.462;2023-04-15T06:30:04;2.28;;;1.60;;
66384;SDS011;53426;55.872;37.462;2023-04-15T06:32:33;2.80;;;1.90;;
66384;SDS011;53426;55.872;37.462;2023-04-15T06:35:00;2.47;;;2.00;;
66384;SDS011;53426;55.872;37.462;2023-04-15T06:37:27;4.57;;;1.90;;
66384;SDS011;53426;55.872;37.462;2023-04-15T06:42:47;3.85;;;1.92;;
66384;SDS011;53426;55.872;37.462;2023-04-15T06:45:15;1.92;;;1.70;;
66384;SDS011;53426;55.872;37.462;2023-04-15T06:47:43;6.22;;;1.75;;
66384;SDS011;53426;55.872;37.462;2023-04-15T06:53:03;2.42;;;1.80;;
66384;SDS011;53426;55.872;37.462;2023-04-15T06:55:31;2.90;;;1.92;;
66384;SDS011;53426;55.872;37.462;2023-04-15T06:57:59;3.45;;;1.83;;
66384;SDS011;53426;55.872;37.462;2023-04-15T07:00:26;9.45;;;2.38;;
66384;SDS011;53426;55.872;37.462;2023-04-15T07:02:54;2.80;;;1.95;;
66384;SDS011;53426;55.872;37.462;2023-04-15T07:05:21;4.43;;;1.75;;
66384;SDS011;53426;55.872;37.462;2023-04-15T07:07:48;5.03;;;2.30;;
66384;SDS011;53426;55.872;37.462;2023-04-15T07:10:15;2.00;;;1.80;;
66384;SDS011;53426;55.872;37.462;2023-04-15T07:12:42;4.55;;;2.20;;
66384;SDS011;53426;55.872;37.462;2023-04-15T07:15:10;4.18;;;2.17;;
66384;SDS011;53426;55.872;37.462;2023-04-15T07:17:41;3.78;;;2.20;;
66384;SDS011;53426;55.872;37.462;2023-04-15T07:20:11;7.50;;;1.98;;
66384;SDS011;53426;55.872;37.462;2023-04-15T07:22:39;2.42;;;1.70;;
66384;SDS011;53426;55.872;37.462;2023-04-15T07:25:12;5.35;;;2.10;;
66384;SDS011;53426;55.872;37.462;2023-04-15T07:27:42;3.85;;;1.98;;
66384;SDS011;53426;55.872;37.462;2023-04-15T07:30:09;6.07;;;2.38;;
66384;SDS011;53426;55.872;37.462;2023-04-15T07:32:36;7.72;;;2.53;;
66384;SDS011;53426;55.872;37.462;2023-04-15T07:35:07;5.28;;;2.22;;
66384;SDS011;53426;55.872;37.462;2023-04-15T07:37:43;4.32;;;2.40;;
66384;SDS011;53426;55.872;37.462;2023-04-15T07:40:12;5.97;;;2.20;;
66384;SDS011;53426;55.872;37.462;2023-04-15T07:42:43;6.75;;;2.28;;
66384;SDS011;53426;55.872;37.462;2023-04-15T07:45:10;7.55;;;2.10;;
66384;SDS011;53426;55.872;37.462;2023-04-15T07:47:38;3.17;;;2.10;;
66384;SDS011;53426;55.872;37.462;2023-04-15T07:50:06;5.80;;;2.20;;
66384;SDS011;53426;55.872;37.462;2023-04-15T07:52:36;8.57;;;2.50;;
66384;SDS011;53426;55.872;37.462;2023-04-15T07:55:05;5.63;;;1.90;;
66384;SDS011;53426;55.872;37.462;2023-04-15T07:57:45;3.28;;;2.08;;
66384;SDS011;53426;55.872;37.462;2023-04-15T08:00:13;5.65;;;2.58;;
66384;SDS011;53426;55.872;37.462;2023-04-15T08:02:41;8.32;;;2.33;;
66384;SDS011;53426;55.872;37.462;2023-04-15T08:05:12;6.60;;;2.00;;
66384;SDS011;53426;55.872;37.462;2023-04-15T08:07:39;2.58;;;2.00;;
66384;SDS011;53426;55.872;37.462;2023-04-15T08:10:07;5.40;;;2.03;;
66384;SDS011;53426;55.872;37.462;2023-04-15T08:12:35;5.90;;;2.30;;
66384;SDS011;53426;55.872;37.462;2023-04-15T08:15:02;6.47;;;2.05;;
66384;SDS011;53426;55.872;37.462;2023-04-15T08:17:30;8.40;;;2.17;;
66384;SDS011;53426;55.872;37.462;2023-04-15T08:20:01;7.50;;;2.38;;
66384;SDS011;53426;55.872;37.462;2023-04-15T08:22:29;4.40;;;2.13;;
66384;SDS011;53426;55.872;37.462;2023-04-15T08:24:56;6.35;;;1.90;;
66384;SDS011;53426;55.872;37.462;2023-04-15T08:27:25;4.00;;;2.00;;
66384;SDS011;53426;55.872;37.462;2023-04-15T08:29:52;6.13;;;2.20;;
66384;SDS011;53426;55.872;37.462;2023-04-15T08:32:19;4.53;;;2.20;;
66384;SDS011;53426;55.872;37.462;2023-04-15T08:34:46;2.30;;;1.95;;
66384;SDS011;53426;55.872;37.462;2023-04-15T08:37:13;7.45;;;2.20;;
66384;SDS011;53426;55.872;37.462;2023-04-15T08:39:40;2.65;;;1.70;;
66384;SDS011;53426;55.872;37.462;2023-04-15T08:42:10;2.10;;;1.90;;
66384;SDS011;53426;55.872;37.462;2023-04-15T08:44:41;8.27;;;2.42;;
66384;SDS011;53426;55.872;37.462;2023-04-15T08:47:10;4.22;;;1.80;;
66384;SDS011;53426;55.872;37.462;2023-04-15T08:49:39;2.50;;;2.08;;
66384;SDS011;53426;55.872;37.462;2023-04-15T08:52:09;2.75;;;2.40;;
66384;SDS011;53426;55.872;37.462;2023-04-15T08:54:38;2.50;;;2.00;;
66384;SDS011;53426;55.872;37.462;2023-04-15T08:57:05;4.35;;;2.00;;
66384;SDS011;53426;55.872;37.462;2023-04-15T08:59:32;3.45;;;2.00;;
66384;SDS011;53426;55.872;37.462;2023-04-15T09:02:01;4.22;;;2.80;;
66384;SDS011;53426;55.872;37.462;2023-04-15T09:04:30;2.60;;;2.22;;
66384;SDS011;53426;55.872;37.462;2023-04-15T09:06:58;3.85;;;1.98;;
66384;SDS011;53426;55.872;37.462;2023-04-15T09:09:25;2.92;;;2.22;;
66384;SDS011;53426;55.872;37.462;2023-04-15T09:11:53;4.35;;;2.55;;
66384;SDS011;53426;55.872;37.462;2023-04-15T09:14:20;5.38;;;3.42;;
66384;SDS011;53426;55.872;37.462;2023-04-15T09:17:03;4.15;;;2.53;;
66384;SDS011;53426;55.872;37.462;2023-04-15T09:19:30;8.30;;;2.72;;
66384;SDS011;53426;55.872;37.462;2023-04-15T09:22:00;5.97;;;2.65;;
66384;SDS011;53426;55.872;37.462;2023-04-15T09:24:37;6.75;;;2.45;;
66384;SDS011;53426;55.872;37.462;2023-04-15T09:27:05;3.20;;;2.45;;
66384;SDS011;53426;55.872;37.462;2023-04-15T09:29:32;4.53;;;2.70;;
66384;SDS011;53426;55.872;37.462;2023-04-15T09:32:12;4.40;;;2.35;;
66384;SDS011;53426;55.872;37.462;2023-04-15T09:34:41;5.53;;;3.00;;
66384;SDS011;53426;55.872;37.462;2023-04-15T09:37:08;4.78;;;2.40;;
66384;SDS011;53426;55.872;37.462;2023-04-15T09:39:46;4.13;;;2.33;;
66384;SDS011;53426;55.872;37.462;2023-04-15T09:42:18;6.28;;;2.22;;
66384;SDS011;53426;55.872;37.462;2023-04-15T09:44:52;3.72;;;2.38;;
66384;SDS011;53426;55.872;37.462;2023-04-15T09:50:57;2.63;;;2.22;;
66384;SDS011;53426;55.872;37.462;2023-04-15T09:53:28;5.38;;;2.05;;
66384;SDS011;53426;55.872;37.462;2023-04-15T09:55:56;7.80;;;2.10;;
66384;SDS011;53426;55.872;37.462;2023-04-15T09:58:38;9.10;;;2.53;;
66384;SDS011;53426;55.872;37.462;2023-04-15T10:01:08;2.72;;;2.45;;
66384;SDS011;53426;55.872;37.462;2023-04-15T10:03:37;9.20;;;3.20;;
66384;SDS011;53426;55.872;37.462;2023-04-15T10:06:07;6.82;;;3.22;;
66384;SDS011;53426;55.872;37.462;2023-04-15T10:08:35;6.75;;;2.78;;
66384;SDS011;53426;55.872;37.462;2023-04-15T10:16:40;2.95;;;2.47;;
66384;SDS011;53426;55.872;37.462;2023-04-15T10:19:11;4.28;;;2.20;;
66384;SDS011;53426;55.872;37.462;2023-04-15T10:21:39;3.25;;;2.40;;
66384;SDS011;53426;55.872;37.462;2023-04-15T10:24:07;5.90;;;2.60;;
66384;SDS011;53426;55.872;37.462;2023-04-15T10:26:34;3.13;;;2.50;;
66384;SDS011;53426;55.872;37.462;2023-04-15T10:29:07;5.65;;;2.28;;
66384;SDS011;53426;55.872;37.462;2023-04-15T10:32:06;6.20;;;2.58;;
66384;SDS011;53426;55.872;37.462;2023-04-15T10:38:03;7.60;;;2.45;;
66384;SDS011;53426;55.872;37.462;2023-04-15T10:41:33;3.17;;;2.13;;
66384;SDS011;53426;55.872;37.462;2023-04-15T10:44:10;2.30;;;2.00;;
66384;SDS011;53426;55.872;37.462;2023-04-15T10:46:46;8.38;;;2.78;;
66384;SDS011;53426;55.872;37.462;2023-04-15T10:50:07;3.03;;;2.58;;
66384;SDS011;53426;55.872;37.462;2023-04-15T10:53:01;4.28;;;2.42;;
66384;SDS011;53426;55.872;37.462;2023-04-15T10:55:39;3.38;;;2.28;;
66384;SDS011;53426;55.872;37.462;2023-04-15T10:58:13;2.60;;;2.40;;
66384;SDS011;53426;55.872;37.462;2023-04-15T11:00:41;4.95;;;2.38;;
66384;SDS011;53426;55.872;37.462;2023-04-15T11:07:14;4.57;;;2.00;;
66384;SDS011;53426;55.872;37.462;2023-04-15T11:10:02;4.80;;;2.17;;
66384;SDS011;53426;55.872;37.462;2023-04-15T11:12:34;7.78;;;2.53;;
66384;SDS011;53426;55.872;37.462;2023-04-15T11:24:45;5.93;;;1.95;;
66384;SDS011;53426;55.872;37.462;2023-04-15T11:53:14;2.80;;;1.83;;
66384;SDS011;53426;55.872;37.462;2023-04-15T11:55:44;6.38;;;2.88;;
66384;SDS011;53426;55.872;37.462;2023-04-15T11:58:21;5.10;;;2.60;;
66384;SDS011;53426;55.872;37.462;2023-04-15T12:00:50;5.25;;;2.45;;
66384;SDS011;53426;55.872;37.462;2023-04-15T12:03:23;2.92;;;2.17;;
66384;SDS011;53426;55.872;37.462;2023-04-15T12:06:04;3.72;;;2.30;;
66384;SDS011;53426;55.872;37.462;2023-04-15T12:11:47;5.45;;;2.70;;
66384;SDS011;53426;55.872;37.462;2023-04-15T12:17:09;8.45;;;2.75;;
66384;SDS011;53426;55.872;37.462;2023-04-15T12:19:39;2.95;;;2.25;;
66384;SDS011;53426;55.872;37.462;2023-04-15T12:24:37;3.65;;;2.50;;
66384;SDS011;53426;55.872;37.462;2023-04-15T12:30:49;3.33;;;2.53;;
66384;SDS011;53426;55.872;37.462;2023-04-15T12:33:18;6.63;;;2.70;;
66384;SDS011;53426;55.872;37.462;2023-04-15T12:35:49;4.03;;;2.13;;
66384;SDS011;53426;55.872;37.462;2023-04-15T12:38:15;12.05;;;2.47;;
66384;SDS011;53426;55.872;37.462;2023-04-15T12:44:38;5.05;;;2.38;;
66384;SDS011;53426;55.872;37.462;2023-04-15T12:47:05;4.93;;;2.72;;
66384;SDS011;53426;55.872;37.462;2023-04-15T12:49:32;4.97;;;2.05;;
66384;SDS011;53426;55.872;37.462;2023-04-15T12:51:58;6.28;;;2.00;;
66384;SDS011;53426;55.872;37.462;2023-04-15T12:54:26;4.63;;;2.33;;
66384;SDS011;53426;55.872;37.462;2023-04-15T12:56:53;3.15;;;2.15;;
66384;SDS011;53426;55.872;37.462;2023-04-15T12:59:22;10.63;;;2.88;;
66384;SDS011;53426;55.872;37.462;2023-04-15T13:01:49;6.03;;;2.45;;
66384;SDS011;53426;55.872;37.462;2023-04-15T13:04:35;7.13;;;2.30;;
66384;SDS011;53426;55.872;37.462;2023-04-15T13:07:01;2.40;;;2.20;;
66384;SDS011;53426;55.872;37.462;2023-04-15T13:09:26;6.03;;;2.40;;
66384;SDS011;53426;55.872;37.462;2023-04-15T13:11:55;5.05;;;2.08;;
66384;SDS011;53426;55.872;37.462;2023-04-15T13:14:21;3.40;;;2.42;;
66384;SDS011;53426;55.872;37.462;2023-04-15T13:16:47;6.15;;;2.50;;
66384;SDS011;53426;55.872;37.462;2023-04-15T13:19:14;4.32;;;2.47;;
66384;SDS011;53426;55.872;37.462;2023-04-15T13:21:40;10.85;;;2.22;;
66384;SDS011;53426;55.872;37.462;2023-04-15T13:24:09;9.07;;;2.50;;
66384;SDS011;53426;55.872;37.462;2023-04-15T13:26:37;7.80;;;3.15;;
66384;SDS011;53426;55.872;37.462;2023-04-15T13:29:03;7.97;;;2.83;;
66384;SDS011;53426;55.872;37.462;2023-04-15T13:31:29;4.13;;;2.55;;
66384;SDS011;53426;55.872;37.462;2023-04-15T13:40:35;5.88;;;2.28;;
66384;SDS011;53426;55.872;37.462;2023-04-15T13:43:01;3.70;;;2.00;;
66384;SDS011;53426;55.872;37.462;2023-04-15T13:45:30;5.22;;;2.28;;
66384;SDS011;53426;55.872;37.462;2023-04-15T13:47:56;5.32;;;2.40;;
66384;SDS011;53426;55.872;37.462;2023-04-15T13:50:22;10.82;;;2.72;;
66384;SDS011;53426;55.872;37.462;2023-04-15T13:52:48;3.97;;;2.55;;
66384;SDS011;53426;55.872;37.462;2023-04-15T13:55:15;7.00;;;2.58;;
66384;SDS011;53426;55.872;37.462;2023-04-15T13:57:40;8.20;;;2.95;;
66384;SDS011;53426;55.872;37.462;2023-04-15T14:00:07;5.00;;;2.20;;
66384;SDS011;53426;55.872;37.462;2023-04-15T14:02:33;3.53;;;2.20;;
66384;SDS011;53426;55.872;37.462;2023-04-15T14:09:08;5.20;;;2.03;;
66384;SDS011;53426;55.872;37.462;2023-04-15T14:17:26;9.10;;;3.17;;
66384;SDS011;53426;55.872;37.462;2023-04-15T14:19:53;6.25;;;2.45;;
66384;SDS011;53426;55.872;37.462;2023-04-15T14:22:20;3.80;;;2.20;;
66384;SDS011;53426;55.872;37.462;2023-04-15T14:24:46;5.88;;;3.28;;
66384;SDS011;53426;55.872;37.462;2023-04-15T14:27:13;3.40;;;2.40;;
66384;SDS011;53426;55.872;37.462;2023-04-15T14:29:39;5.68;;;2.88;;
66384;SDS011;53426;55.872;37.462;2023-04-15T14:32:05;4.13;;;2.75;;
66384;SDS011;53426;55.872;37.462;2023-04-15T14:34:31;6.15;;;2.80;;
66384;SDS011;53426;55.872;37.462;2023-04-15T14:36:57;3.72;;;2.78;;
66384;SDS011;53426;55.872;37.462;2023-04-15T14:39:23;8.93;;;2.65;;
66384;SDS011;53426;55.872;37.462;2023-04-15T14:41:49;3.92;;;2.80;;
66384;SDS011;53426;55.872;37.462;2023-04-15T14:44:15;6.75;;;3.20;;
66384;SDS011;53426;55.872;37.462;2023-04-15T14:46:41;5.10;;;2.65;;
66384;SDS011;53426;55.872;37.462;2023-04-15T14:49:06;14.25;;;2.83;;
66384;SDS011;53426;55.872;37.462;2023-04-15T14:51:32;2.83;;;2.50;;
66384;SDS011;53426;55.872;37.462;2023-04-15T14:54:01;4.43;;;2.38;;
66384;SDS011;53426;55.872;37.462;2023-04-15T14:56:27;7.63;;;2.88;;
66384;SDS011;53426;55.872;37.462;2023-04-15T14:58:53;8.05;;;2.65;;
66384;SDS011;53426;55.872;37.462;2023-04-15T15:01:22;7.43;;;3.15;;
66384;SDS011;53426;55.872;37.462;2023-04-15T15:03:52;7.03;;;3.20;;
66384;SDS011;53426;55.872;37.462;2023-04-15T15:16:33;3.58;;;2.85;;
66384;SDS011;53426;55.872;37.462;2023-04-15T15:19:15;15.27;;;3.25;;
66384;SDS011;53426;55.872;37.462;2023-04-15T15:21:44;6.47;;;3.00;;
66384;SDS011;53426;55.872;37.462;2023-04-15T15:27:05;5.00;;;2.92;;
66384;SDS011;53426;55.872;37.462;2023-04-15T15:29:31;7.70;;;3.10;;
66384;SDS011;53426;55.872;37.462;2023-04-15T15:31:57;6.50;;;3.75;;
66384;SDS011;53426;55.872;37.462;2023-04-15T15:34:23;8.80;;;3.40;;
66384;SDS011;53426;55.872;37.462;2023-04-15T15:36:49;11.75;;;3.47;;
66384;SDS011;53426;55.872;37.462;2023-04-15T15:39:18;7.68;;;3.10;;
66384;SDS011;53426;55.872;37.462;2023-04-15T15:41:44;5.72;;;3.17;;
66384;SDS011;53426;55.872;37.462;2023-04-15T15:44:10;4.57;;;3.10;;
66384;SDS011;53426;55.872;37.462;2023-04-15T15:46:45;6.53;;;3.35;;
66384;SDS011;53426;55.872;37.462;2023-04-15T15:49:11;8.38;;;3.75;;
66384;SDS011;53426;55.872;37.462;2023-04-15T15:51:37;9.13;;;3.50;;
66384;SDS011;53426;55.872;37.462;2023-04-15T15:54:03;8.90;;;3.10;;
66384;SDS011;53426;55.872;37.462;2023-04-15T15:56:41;12.25;;;3.95;;
66384;SDS011;53426;55.872;37.462;2023-04-15T15:59:07;4.32;;;3.47;;
66384;SDS011;53426;55.872;37.462;2023-04-15T16:01:32;5.75;;;3.30;;
66384;SDS011;53426;55.872;37.462;2023-04-15T16:06:59;10.13;;;3.33;;
66384;SDS011;53426;55.872;37.462;2023-04-15T16:09:35;8.60;;;3.13;;
66384;SDS011;53426;55.872;37.462;2023-04-15T16:12:09;6.15;;;3.75;;
66384;SDS011;53426;55.872;37.462;2023-04-15T16:15:12;14.38;;;3.65;;
66384;SDS011;53426;55.872;37.462;2023-04-15T16:18:01;7.88;;;3.83;;
66384;SDS011;53426;55.872;37.462;2023-04-15T16:20:33;15.10;;;4.30;;
66384;SDS011;53426;55.872;37.462;2023-04-15T16:23:20;9.48;;;3.92;;
66384;SDS011;53426;55.872;37.462;2023-04-15T16:25:51;8.77;;;4.32;;
66384;SDS011;53426;55.872;37.462;2023-04-15T16:28:17;4.60;;;3.47;;
66384;SDS011;53426;55.872;37.462;2023-04-15T16:30:42;4.70;;;3.58;;
66384;SDS011;53426;55.872;37.462;2023-04-15T16:33:08;7.63;;;4.35;;